Time;durP1;ratioP1;P1;durP2;ratioP2;P2;SDS_P1;SDS_P2;PMS_P1;PMS_P2;Temp;Humidity;BMP_temperature;BMP_pressure;BME280_temperature;BME280_humidity;BME280_pressure;Samples;Min_cycle;Max_cycle;Signal;HPM_P1;HPM_P2
2022/07/28 00:00:45;;;;;;;5.05;2.50;;;;;;;;;;5004223;28;20051;-73
2022/07/28 00:03:11;;;;;;;5.03;2.90;;;;;;;;;;5003419;28;20050;-73
2022/07/28 00:05:37;;;;;;;4.43;3.20;;;;;;;;;;5001853;28;20046;-73
2022/07/28 00:08:04;;;;;;;4.78;3.05;;;;;;;;;;5003737;28;20062;-72
2022/07/28 00:10:31;;;;;;;3.83;2.90;;;;;;;;;;5001069;28;20046;-73
2022/07/28 00:12:58;;;;;;;3.45;2.80;;;;;;;;;;5003735;28;20050;-73
2022/07/28 00:15:25;;;;;;;4.10;2.90;;;;;;;;;;5004008;28;20050;-73
2022/07/28 00:17:51;;;;;;;3.92;2.60;;;;;;;;;;5002151;28;20043;-73
2022/07/28 00:20:17;;;;;;;4.35;2.72;;;;;;;;;;5005426;28;20053;-73
2022/07/28 00:22:44;;;;;;;4.88;2.40;;;;;;;;;;5003879;28;20062;-73
2022/07/28 00:25:10;;;;;;;4.05;2.50;;;;;;;;;;5008279;28;20057;-73
2022/07/28 00:27:37;;;;;;;4.03;2.50;;;;;;;;;;5005308;28;20046;-73
2022/07/28 00:30:04;;;;;;;5.18;2.70;;;;;;;;;;4990925;28;20074;-73
2022/07/28 00:32:30;;;;;;;2.70;2.45;;;;;;;;;;5006191;28;20038;-74
2022/07/28 00:34:56;;;;;;;2.90;2.35;;;;;;;;;;5008365;28;20579;-73
2022/07/28 00:37:22;;;;;;;4.45;2.70;;;;;;;;;;5007744;28;20070;-72
2022/07/28 00:39:48;;;;;;;3.53;2.58;;;;;;;;;;5005271;28;20042;-74
2022/07/28 00:42:18;;;;;;;4.35;2.40;;;;;;;;;;5007553;28;20061;-73
2022/07/28 00:44:44;;;;;;;4.88;2.42;;;;;;;;;;5005657;28;20046;-73
2022/07/28 00:47:10;;;;;;;4.97;2.50;;;;;;;;;;5081991;23;20092;-76
2022/07/28 00:49:37;;;;;;;3.88;2.75;;;;;;;;;;5081379;28;20021;-75
2022/07/28 00:52:08;;;;;;;4.28;2.70;;;;;;;;;;5081652;28;20017;-75
2022/07/28 00:54:34;;;;;;;3.88;2.53;;;;;;;;;;5063967;28;20021;-75
2022/07/28 00:57:00;;;;;;;6.10;2.90;;;;;;;;;;5075748;28;20041;-75
2022/07/28 00:59:26;;;;;;;4.55;2.60;;;;;;;;;;5075761;28;20021;-75
2022/07/28 01:01:53;;;;;;;3.72;2.70;;;;;;;;;;5064167;28;20036;-75
2022/07/28 01:04:20;;;;;;;4.55;2.97;;;;;;;;;;5081153;28;20016;-75
2022/07/28 01:06:55;;;;;;;4.57;2.78;;;;;;;;;;5081656;28;20040;-75
2022/07/28 01:09:21;;;;;;;3.22;2.50;;;;;;;;;;5081384;28;20017;-75
2022/07/28 01:12:17;;;;;;;5.10;3.00;;;;;;;;;;5064132;28;20032;-75
2022/07/28 01:14:54;;;;;;;3.67;2.58;;;;;;;;;;5071328;28;20025;-75
2022/07/28 01:17:28;;;;;;;4.22;2.53;;;;;;;;;;5080157;28;20017;-75
2022/07/28 01:20:04;;;;;;;3.80;2.25;;;;;;;;;;5077917;28;20028;-75
2022/07/28 01:22:33;;;;;;;3.45;2.60;;;;;;;;;;5081207;28;20017;-75
2022/07/28 01:25:03;;;;;;;3.78;2.47;;;;;;;;;;5074592;28;20017;-76
2022/07/28 01:27:37;;;;;;;4.72;2.45;;;;;;;;;;5079971;28;20069;-75
2022/07/28 01:30:05;;;;;;;5.00;2.83;;;;;;;;;;5081467;28;20017;-75
2022/07/28 01:32:36;;;;;;;3.65;2.50;;;;;;;;;;5061876;28;20081;-75
2022/07/28 01:35:25;;;;;;;3.08;2.25;;;;;;;;;;5080373;28;20028;-75
2022/07/28 01:37:52;;;;;;;3.95;3.20;;;;;;;;;;5081243;28;20048;-75
2022/07/28 01:40:20;;;;;;;5.25;3.30;;;;;;;;;;5079942;28;20033;-76
2022/07/28 01:42:48;;;;;;;5.38;3.65;;;;;;;;;;5080395;28;20013;-76
2022/07/28 01:45:15;;;;;;;4.32;3.53;;;;;;;;;;5072907;28;20073;-77
2022/07/28 01:47:44;;;;;;;6.75;3.45;;;;;;;;;;5078939;28;20025;-75
2022/07/28 01:50:10;;;;;;;5.65;3.60;;;;;;;;;;5079817;28;20096;-75
2022/07/28 01:52:37;;;;;;;6.75;3.90;;;;;;;;;;5080948;28;20028;-75
2022/07/28 01:55:04;;;;;;;5.32;4.18;;;;;;;;;;5055389;28;20017;-77
2022/07/28 01:57:32;;;;;;;6.40;4.13;;;;;;;;;;5053010;28;20024;-75
2022/07/28 01:59:59;;;;;;;5.28;3.90;;;;;;;;;;5062684;28;20033;-75
2022/07/28 02:02:26;;;;;;;4.80;3.53;;;;;;;;;;5074704;28;20013;-75
2022/07/28 02:04:52;;;;;;;7.18;3.65;;;;;;;;;;5063546;28;20086;-77
2022/07/28 02:07:20;;;;;;;6.35;3.70;;;;;;;;;;5063084;28;20072;-76
2022/07/28 02:09:46;;;;;;;4.65;3.88;;;;;;;;;;5079190;28;20024;-76
2022/07/28 02:12:17;;;;;;;5.63;3.90;;;;;;;;;;5077824;28;20017;-75
2022/07/28 02:14:46;;;;;;;5.68;3.70;;;;;;;;;;5079452;28;20036;-75
2022/07/28 02:17:13;;;;;;;5.85;4.13;;;;;;;;;;5079484;28;20049;-75
2022/07/28 02:19:41;;;;;;;4.93;3.60;;;;;;;;;;5078456;28;20013;-75
2022/07/28 02:22:07;;;;;;;4.40;3.20;;;;;;;;;;5080318;28;20021;-75
2022/07/28 02:24:34;;;;;;;4.40;3.30;;;;;;;;;;5062662;28;20013;-75
2022/07/28 02:27:01;;;;;;;5.82;3.50;;;;;;;;;;5043549;28;20014;-75
2022/07/28 02:29:28;;;;;;;5.22;3.50;;;;;;;;;;5061609;28;20021;-76
2022/07/28 02:32:00;;;;;;;5.35;4.10;;;;;;;;;;5079142;28;20021;-75
2022/07/28 02:34:27;;;;;;;5.28;4.20;;;;;;;;;;5080210;28;20035;-75
2022/07/28 02:36:55;;;;;;;4.85;4.13;;;;;;;;;;5062450;28;20013;-75
2022/07/28 02:39:30;;;;;;;6.93;4.78;;;;;;;;;;5077926;28;20072;-75
2022/07/28 02:42:03;;;;;;;6.95;4.93;;;;;;;;;;5077725;28;20072;-75
2022/07/28 02:44:30;;;;;;;7.57;5.30;;;;;;;;;;5061924;28;20051;-76
2022/07/28 02:47:00;;;;;;;6.78;4.70;;;;;;;;;;5079170;28;20061;-75
2022/07/28 02:49:33;;;;;;;5.82;4.40;;;;;;;;;;5078574;28;20032;-76
2022/07/28 02:52:01;;;;;;;6.03;4.22;;;;;;;;;;5079813;28;20017;-75
2022/07/28 02:54:28;;;;;;;6.95;4.50;;;;;;;;;;5078123;28;20062;-75
2022/07/28 02:56:58;;;;;;;6.78;4.50;;;;;;;;;;5078644;28;20073;-76
2022/07/28 02:59:25;;;;;;;6.18;4.70;;;;;;;;;;5045969;28;20032;-77
2022/07/28 03:01:52;;;;;;;5.80;4.15;;;;;;;;;;5077799;28;20033;-77
2022/07/28 03:04:55;;;;;;;7.07;4.50;;;;;;;;;;5079066;28;20017;-75
2022/07/28 03:07:07;;;;;;;6.68;4.30;;;;;;;;;;5079570;28;20080;-75
2022/07/28 03:09:38;;;;;;;4.40;3.72;;;;;;;;;;5077744;28;20009;-75
2022/07/28 03:12:04;;;;;;;4.70;4.18;;;;;;;;;;5042232;28;20026;-75
2022/07/28 03:14:30;;;;;;;4.78;4.05;;;;;;;;;;5059632;28;20037;-75
2022/07/28 03:16:56;;;;;;;6.10;4.13;;;;;;;;;;5050994;28;20040;-75
2022/07/28 03:19:22;;;;;;;6.55;3.80;;;;;;;;;;5062886;28;20038;-75
2022/07/28 03:21:51;;;;;;;6.47;4.40;;;;;;;;;;5070335;28;20048;-76
2022/07/28 03:24:19;;;;;;;4.40;3.83;;;;;;;;;;5059912;28;20026;-75
2022/07/28 03:26:48;;;;;;;6.68;4.10;;;;;;;;;;5078808;28;20013;-75
2022/07/28 03:29:16;;;;;;;4.32;3.47;;;;;;;;;;5079470;28;20028;-75
2022/07/28 03:31:44;;;;;;;4.63;3.80;;;;;;;;;;5061408;28;20033;-75
2022/07/28 03:34:10;;;;;;;4.53;3.83;;;;;;;;;;5059415;28;20021;-75
2022/07/28 03:36:39;;;;;;;4.95;3.80;;;;;;;;;;5042421;28;20073;-75
2022/07/28 03:39:10;;;;;;;4.70;3.53;;;;;;;;;;5079006;28;20043;-75
2022/07/28 03:41:37;;;;;;;5.65;3.78;;;;;;;;;;5079274;28;20028;-75
2022/07/28 03:44:03;;;;;;;6.20;4.22;;;;;;;;;;5078612;28;20009;-75
2022/07/28 03:46:30;;;;;;;4.82;4.20;;;;;;;;;;5047991;28;20034;-76
2022/07/28 03:48:56;;;;;;;4.75;3.45;;;;;;;;;;5061557;28;20044;-76
2022/07/28 03:51:24;;;;;;;3.13;2.72;;;;;;;;;;5045719;28;20072;-77
2022/07/28 03:53:50;;;;;;;3.70;2.80;;;;;;;;;;5043494;28;20089;-76
2022/07/28 03:56:16;;;;;;;4.82;3.10;;;;;;;;;;5059279;28;20024;-77
2022/07/28 03:58:42;;;;;;;7.47;3.85;;;;;;;;;;5076456;28;20025;-76
2022/07/28 04:01:08;;;;;;;3.85;3.40;;;;;;;;;;5082408;28;20025;-76
2022/07/28 04:03:34;;;;;;;4.78;4.05;;;;;;;;;;5082313;28;20013;-76
2022/07/28 04:06:00;;;;;;;5.35;4.35;;;;;;;;;;5065778;28;20017;-76
2022/07/28 04:08:26;;;;;;;5.18;3.80;;;;;;;;;;5048842;28;20025;-76
2022/07/28 04:10:52;;;;;;;5.43;4.05;;;;;;;;;;5082892;28;20032;-77
2022/07/28 04:13:21;;;;;;;5.70;3.90;;;;;;;;;;5068708;28;20033;-75
2022/07/28 04:15:47;;;;;;;7.63;4.03;;;;;;;;;;5063894;28;20010;-75
2022/07/28 04:18:13;;;;;;;6.13;3.70;;;;;;;;;;5080323;28;20024;-75
2022/07/28 04:20:39;;;;;;;4.95;4.13;;;;;;;;;;5062615;28;20027;-75
2022/07/28 04:23:05;;;;;;;6.28;4.35;;;;;;;;;;5086687;28;20014;-75
2022/07/28 04:25:31;;;;;;;10.27;3.95;;;;;;;;;;5077476;28;20152;-75
2022/07/28 04:27:57;;;;;;;5.03;4.20;;;;;;;;;;5071017;28;20025;-75
2022/07/28 04:30:24;;;;;;;6.28;3.90;;;;;;;;;;5062525;28;20041;-75
2022/07/28 04:32:51;;;;;;;4.82;3.70;;;;;;;;;;5064043;28;20013;-75
2022/07/28 04:35:18;;;;;;;5.72;4.00;;;;;;;;;;5082343;28;20040;-76
2022/07/28 04:37:45;;;;;;;4.90;4.22;;;;;;;;;;5064918;28;20091;-76
2022/07/28 04:40:12;;;;;;;5.93;3.83;;;;;;;;;;5082173;28;20025;-76
2022/07/28 04:42:38;;;;;;;6.18;4.30;;;;;;;;;;5075919;28;20032;-75
2022/07/28 04:45:05;;;;;;;4.93;4.03;;;;;;;;;;5079696;28;20013;-75
2022/07/28 04:47:31;;;;;;;5.95;3.88;;;;;;;;;;5064597;28;20041;-75
2022/07/28 04:49:57;;;;;;;6.80;3.85;;;;;;;;;;5082131;28;20025;-74
2022/07/28 04:52:24;;;;;;;5.32;4.15;;;;;;;;;;5081490;28;20020;-75
2022/07/28 04:54:50;;;;;;;6.40;3.88;;;;;;;;;;5070656;28;20029;-75
2022/07/28 04:57:16;;;;;;;5.75;4.18;;;;;;;;;;5064373;28;20009;-74
2022/07/28 04:59:42;;;;;;;4.95;3.63;;;;;;;;;;5081905;28;20052;-75
2022/07/28 05:02:08;;;;;;;6.13;3.65;;;;;;;;;;5081605;28;20053;-76
2022/07/28 05:04:34;;;;;;;5.22;3.22;;;;;;;;;;5081616;28;20028;-77
2022/07/28 05:07:00;;;;;;;4.60;3.42;;;;;;;;;;5061107;28;20041;-85
2022/07/28 05:09:26;;;;;;;3.70;3.20;;;;;;;;;;5077917;28;20033;-76
2022/07/28 05:11:53;;;;;;;6.18;4.07;;;;;;;;;;5078154;28;20060;-76
2022/07/28 05:14:19;;;;;;;6.07;4.38;;;;;;;;;;5059979;28;20032;-75
2022/07/28 05:16:48;;;;;;;7.28;4.60;;;;;;;;;;5063655;28;20057;-77
2022/07/28 05:19:14;;;;;;;12.38;7.57;;;;;;;;;;5059527;28;20040;-76
2022/07/28 05:21:40;;;;;;;12.35;8.48;;;;;;;;;;5077575;28;20020;-76
2022/07/28 05:24:07;;;;;;;11.93;8.25;;;;;;;;;;5063862;28;20045;-75
2022/07/28 05:26:33;;;;;;;10.73;7.55;;;;;;;;;;5044296;28;20097;-75
2022/07/28 05:28:59;;;;;;;10.00;6.80;;;;;;;;;;5079397;28;20036;-75
2022/07/28 05:31:25;;;;;;;9.20;5.35;;;;;;;;;;5080002;28;20033;-76
2022/07/28 05:33:51;;;;;;;8.40;5.03;;;;;;;;;;5079088;28;20025;-76
2022/07/28 05:36:17;;;;;;;6.85;4.75;;;;;;;;;;5062731;28;20025;-76
2022/07/28 05:38:43;;;;;;;7.03;4.65;;;;;;;;;;5079301;28;20036;-75
2022/07/28 05:41:09;;;;;;;10.30;4.70;;;;;;;;;;5078897;28;20056;-75
2022/07/28 05:43:36;;;;;;;6.07;3.70;;;;;;;;;;5071026;28;20028;-75
2022/07/28 05:46:03;;;;;;;7.32;3.50;;;;;;;;;;5079120;28;20083;-75
2022/07/28 05:48:29;;;;;;;5.10;3.30;;;;;;;;;;5079029;28;20080;-75
2022/07/28 05:50:55;;;;;;;7.30;3.35;;;;;;;;;;5079531;28;20084;-75
2022/07/28 05:53:21;;;;;;;8.30;3.28;;;;;;;;;;5077814;28;20064;-75
2022/07/28 05:55:47;;;;;;;6.22;3.20;;;;;;;;;;5059447;28;20045;-75
2022/07/28 05:58:13;;;;;;;5.93;3.05;;;;;;;;;;5067980;28;20026;-77
2022/07/28 06:00:39;;;;;;;5.15;3.05;;;;;;;;;;5054413;28;20049;-77
2022/07/28 06:03:06;;;;;;;5.35;3.00;;;;;;;;;;5066536;28;20051;-75
2022/07/28 06:05:32;;;;;;;4.57;3.10;;;;;;;;;;5071458;28;20059;-75
2022/07/28 06:07:59;;;;;;;3.63;2.63;;;;;;;;;;5079265;28;20029;-74
2022/07/28 06:10:26;;;;;;;4.63;2.75;;;;;;;;;;5079247;28;20034;-75
2022/07/28 06:12:53;;;;;;;8.25;2.85;;;;;;;;;;5058796;28;20035;-75
2022/07/28 06:15:26;;;;;;;5.05;2.47;;;;;;;;;;5060576;28;20035;-80
2022/07/28 06:17:54;;;;;;;4.18;2.50;;;;;;;;;;5033902;28;20101;-76
2022/07/28 06:20:24;;;;;;;6.43;2.40;;;;;;;;;;5060019;28;20025;-76
2022/07/28 06:22:52;;;;;;;6.45;2.50;;;;;;;;;;5058309;28;20049;-74
2022/07/28 06:25:19;;;;;;;4.32;2.35;;;;;;;;;;5059298;28;20033;-75
2022/07/28 06:27:46;;;;;;;3.95;2.42;;;;;;;;;;5058909;28;20105;-75
2022/07/28 06:30:12;;;;;;;4.30;2.60;;;;;;;;;;5058792;28;20029;-74
2022/07/28 06:32:38;;;;;;;5.70;2.58;;;;;;;;;;5058537;28;20026;-75
2022/07/28 06:35:04;;;;;;;5.68;2.60;;;;;;;;;;5058708;28;20050;-76
2022/07/28 06:37:30;;;;;;;4.32;2.42;;;;;;;;;;5058656;28;20022;-75
2022/07/28 06:39:57;;;;;;;4.70;2.50;;;;;;;;;;5058575;28;20057;-75
2022/07/28 06:42:23;;;;;;;5.88;3.80;;;;;;;;;;5075950;28;20093;-75
2022/07/28 06:44:53;;;;;;;6.47;4.47;;;;;;;;;;5078410;28;20048;-75
2022/07/28 06:47:19;;;;;;;8.43;5.38;;;;;;;;;;5078209;28;20063;-75
2022/07/28 06:49:45;;;;;;;11.13;6.35;;;;;;;;;;5077543;28;20088;-79
2022/07/28 06:52:11;;;;;;;9.68;6.80;;;;;;;;;;5078485;28;20029;-75
2022/07/28 06:54:37;;;;;;;9.98;5.97;;;;;;;;;;5076719;28;20085;-75
2022/07/28 06:57:04;;;;;;;5.82;5.00;;;;;;;;;;5077371;28;20036;-78
2022/07/28 06:59:30;;;;;;;12.05;6.50;;;;;;;;;;5051295;28;20031;-76
2022/07/28 07:02:00;;;;;;;8.93;5.47;;;;;;;;;;5067168;28;20051;-76
2022/07/28 07:04:27;;;;;;;8.45;4.60;;;;;;;;;;5064284;28;20022;-76
2022/07/28 07:06:53;;;;;;;4.97;3.70;;;;;;;;;;5063846;28;20115;-76
2022/07/28 07:09:19;;;;;;;7.18;3.58;;;;;;;;;;5078098;28;20084;-76
2022/07/28 07:11:45;;;;;;;6.07;3.42;;;;;;;;;;5065884;28;20030;-76
2022/07/28 07:14:11;;;;;;;5.85;3.20;;;;;;;;;;5061741;28;20061;-77
2022/07/28 07:16:37;;;;;;;5.38;2.88;;;;;;;;;;5060438;28;20053;-76
2022/07/28 07:19:03;;;;;;;5.20;2.78;;;;;;;;;;5045732;28;20048;-77
2022/07/28 07:21:29;;;;;;;3.97;2.30;;;;;;;;;;5065029;28;20028;-75
2022/07/28 07:23:55;;;;;;;3.88;2.28;;;;;;;;;;5061846;28;20032;-76
2022/07/28 07:26:21;;;;;;;5.30;2.35;;;;;;;;;;5042780;28;20053;-75
2022/07/28 07:28:47;;;;;;;3.05;1.95;;;;;;;;;;5045303;28;20052;-74
2022/07/28 07:31:13;;;;;;;4.70;2.00;;;;;;;;;;5062191;28;20021;-75
2022/07/28 07:33:39;;;;;;;4.53;2.17;;;;;;;;;;5042610;28;20183;-76
2022/07/28 07:36:05;;;;;;;4.07;1.95;;;;;;;;;;5047129;28;20056;-76
2022/07/28 07:38:31;;;;;;;5.70;2.30;;;;;;;;;;5062476;28;20045;-76
2022/07/28 07:40:58;;;;;;;4.38;2.10;;;;;;;;;;5060582;28;20041;-82
2022/07/28 07:43:24;;;;;;;5.18;2.10;;;;;;;;;;5054699;28;20029;-77
2022/07/28 07:45:50;;;;;;;4.28;2.20;;;;;;;;;;5060951;28;20043;-76
2022/07/28 07:48:16;;;;;;;3.45;2.30;;;;;;;;;;5064097;28;20073;-77
2022/07/28 07:50:43;;;;;;;4.82;2.00;;;;;;;;;;5066419;28;20040;-76
2022/07/28 07:53:09;;;;;;;6.60;2.35;;;;;;;;;;5062636;28;20045;-76
2022/07/28 07:55:35;;;;;;;4.75;2.40;;;;;;;;;;5063602;28;20021;-76
2022/07/28 07:58:01;;;;;;;3.75;2.50;;;;;;;;;;5064491;28;20038;-76
2022/07/28 08:00:27;;;;;;;5.90;2.60;;;;;;;;;;5065580;28;21489;-76
2022/07/28 08:02:53;;;;;;;5.43;2.65;;;;;;;;;;5063930;28;20025;-76
2022/07/28 08:05:19;;;;;;;5.70;2.67;;;;;;;;;;5047090;28;20077;-76
2022/07/28 08:07:45;;;;;;;4.25;2.55;;;;;;;;;;5068013;28;20021;-76
2022/07/28 08:10:11;;;;;;;4.18;2.80;;;;;;;;;;5081403;28;20021;-76
2022/07/28 08:12:37;;;;;;;3.17;2.58;;;;;;;;;;5081427;28;20197;-77
2022/07/28 08:15:04;;;;;;;4.32;2.55;;;;;;;;;;5064212;28;20036;-76
2022/07/28 08:17:30;;;;;;;2.97;2.50;;;;;;;;;;5081355;28;20084;-76
2022/07/28 08:19:56;;;;;;;2.78;2.40;;;;;;;;;;5081150;28;20047;-76
2022/07/28 08:22:22;;;;;;;4.38;2.28;;;;;;;;;;5080173;28;20048;-76
2022/07/28 08:24:48;;;;;;;4.55;2.70;;;;;;;;;;5079644;28;20024;-76
2022/07/28 08:27:14;;;;;;;4.93;2.38;;;;;;;;;;5079886;28;20057;-76
2022/07/28 08:29:40;;;;;;;3.35;2.05;;;;;;;;;;5080453;28;20033;-76
2022/07/28 08:32:06;;;;;;;3.35;2.30;;;;;;;;;;5080121;28;20024;-76
2022/07/28 08:34:33;;;;;;;2.83;2.05;;;;;;;;;;5063528;28;20037;-76
2022/07/28 08:36:59;;;;;;;4.82;2.38;;;;;;;;;;5066359;28;20037;-76
2022/07/28 08:39:25;;;;;;;4.25;2.08;;;;;;;;;;5061040;28;20029;-76
2022/07/28 08:41:54;;;;;;;7.00;2.47;;;;;;;;;;5061855;28;20040;-76
2022/07/28 08:44:24;;;;;;;6.05;2.22;;;;;;;;;;5069738;28;20021;-76
2022/07/28 08:46:50;;;;;;;2.80;1.80;;;;;;;;;;5080653;28;20064;-76
2022/07/28 08:49:16;;;;;;;6.70;2.13;;;;;;;;;;5071758;28;20033;-77
2022/07/28 08:51:43;;;;;;;3.03;2.08;;;;;;;;;;5080798;28;20149;-76
2022/07/28 08:54:15;;;;;;;2.38;1.58;;;;;;;;;;5061687;28;20033;-76
2022/07/28 08:56:43;;;;;;;2.13;1.70;;;;;;;;;;5079966;28;20025;-77
2022/07/28 08:59:09;;;;;;;2.67;1.73;;;;;;;;;;5080458;28;20025;-76
2022/07/28 09:01:36;;;;;;;1.92;1.60;;;;;;;;;;5080277;28;20047;-76
2022/07/28 09:04:03;;;;;;;1.52;1.40;;;;;;;;;;5080051;28;20053;-77
2022/07/28 09:06:30;;;;;;;2.00;1.63;;;;;;;;;;5080144;28;20060;-77
2022/07/28 09:08:56;;;;;;;3.83;1.50;;;;;;;;;;5079032;28;20085;-82
2022/07/28 09:11:22;;;;;;;2.35;1.60;;;;;;;;;;5080219;28;20021;-77
2022/07/28 09:13:48;;;;;;;3.58;1.70;;;;;;;;;;5069063;28;20064;-77
2022/07/28 09:16:14;;;;;;;3.58;1.45;;;;;;;;;;5060176;28;20021;-76
2022/07/28 09:18:40;;;;;;;2.83;1.58;;;;;;;;;;5070597;28;20051;-77
2022/07/28 09:21:06;;;;;;;3.08;1.70;;;;;;;;;;5079356;28;20033;-78
2022/07/28 09:23:42;;;;;;;3.28;1.70;;;;;;;;;;5071328;28;20077;-77
2022/07/28 09:26:09;;;;;;;2.70;1.50;;;;;;;;;;5059829;28;20037;-77
2022/07/28 09:28:47;;;;;;;4.10;1.70;;;;;;;;;;5060250;28;20026;-82
2022/07/28 09:31:13;;;;;;;2.33;1.50;;;;;;;;;;5079655;28;20056;-78
2022/07/28 09:33:39;;;;;;;3.25;1.60;;;;;;;;;;5079197;28;20032;-76
2022/07/28 09:36:12;;;;;;;2.22;1.33;;;;;;;;;;5072533;28;20034;-77
2022/07/28 09:38:41;;;;;;;5.40;1.48;;;;;;;;;;5059472;28;20026;-76
2022/07/28 09:41:07;;;;;;;2.10;1.50;;;;;;;;;;5060809;28;20025;-76
2022/07/28 09:43:38;;;;;;;4.63;1.77;;;;;;;;;;5059342;28;20045;-76
2022/07/28 09:46:10;;;;;;;3.05;1.50;;;;;;;;;;5060532;28;20041;-80
2022/07/28 09:49:03;;;;;;;2.20;1.52;;;;;;;;;;5062763;28;20024;-82
2022/07/28 09:51:32;;;;;;;4.28;1.83;;;;;;;;;;5076811;28;20066;-81
2022/07/28 09:54:09;;;;;;;2.25;1.30;;;;;;;;;;5079307;28;20037;-76
2022/07/28 09:56:35;;;;;;;3.35;1.90;;;;;;;;;;5078971;28;20033;-76
2022/07/28 09:59:05;;;;;;;2.75;1.60;;;;;;;;;;5079409;28;20080;-81
2022/07/28 10:01:33;;;;;;;2.15;1.48;;;;;;;;;;5062159;28;20096;-76
2022/07/28 10:04:00;;;;;;;1.70;1.42;;;;;;;;;;5078468;28;20046;-76
2022/07/28 10:06:31;;;;;;;1.85;1.60;;;;;;;;;;5077343;28;20052;-76
2022/07/28 10:08:58;;;;;;;1.75;1.42;;;;;;;;;;5075070;28;20037;-76
2022/07/28 10:11:29;;;;;;;2.00;1.40;;;;;;;;;;5063226;28;20054;-76
2022/07/28 10:13:55;;;;;;;2.00;1.60;;;;;;;;;;5059121;28;20029;-77
2022/07/28 10:16:21;;;;;;;1.95;1.42;;;;;;;;;;5059024;28;20109;-76
2022/07/28 10:18:47;;;;;;;1.67;1.40;;;;;;;;;;5067480;28;20033;-76
2022/07/28 10:21:14;;;;;;;2.22;1.40;;;;;;;;;;5078415;28;20100;-76
2022/07/28 10:23:43;;;;;;;2.30;1.70;;;;;;;;;;5076191;28;20049;-76
2022/07/28 10:26:10;;;;;;;1.70;1.60;;;;;;;;;;5078359;28;20021;-76
2022/07/28 10:28:38;;;;;;;1.70;1.48;;;;;;;;;;5078847;28;20052;-76
2022/07/28 10:31:08;;;;;;;1.92;1.40;;;;;;;;;;5078876;28;20053;-76
2022/07/28 10:33:34;;;;;;;1.88;1.50;;;;;;;;;;5060196;28;20029;-76
2022/07/28 10:36:01;;;;;;;2.25;1.27;;;;;;;;;;5078484;28;20092;-76
2022/07/28 10:38:33;;;;;;;1.70;1.35;;;;;;;;;;5061169;28;20044;-76
2022/07/28 10:41:01;;;;;;;3.78;1.60;;;;;;;;;;5075341;28;20060;-80
2022/07/28 10:43:29;;;;;;;2.70;1.35;;;;;;;;;;5077886;28;20037;-77
2022/07/28 10:45:55;;;;;;;1.90;1.50;;;;;;;;;;5078270;28;20025;-76
2022/07/28 10:48:21;;;;;;;2.10;1.50;;;;;;;;;;5078486;28;20025;-76
2022/07/28 10:50:48;;;;;;;2.20;1.50;;;;;;;;;;5078174;28;20077;-76
2022/07/28 10:53:24;;;;;;;2.42;1.50;;;;;;;;;;5073478;28;20089;-76
2022/07/28 10:55:54;;;;;;;4.88;1.58;;;;;;;;;;5078434;28;20078;-76
2022/07/28 10:58:20;;;;;;;1.75;1.40;;;;;;;;;;5077527;28;20063;-76
2022/07/28 11:00:47;;;;;;;1.80;1.50;;;;;;;;;;5074922;28;20056;-76
2022/07/28 11:03:32;;;;;;;1.55;1.45;;;;;;;;;;5078303;28;20040;-77
2022/07/28 11:06:18;;;;;;;2.25;1.58;;;;;;;;;;5078272;28;20059;-76
2022/07/28 11:08:44;;;;;;;2.28;1.58;;;;;;;;;;5072284;28;20021;-76
2022/07/28 11:11:10;;;;;;;3.17;1.42;;;;;;;;;;5074643;28;20047;-76
2022/07/28 11:13:37;;;;;;;3.00;1.58;;;;;;;;;;5060888;28;20036;-76
2022/07/28 11:16:12;;;;;;;1.75;1.48;;;;;;;;;;5073881;28;20064;-79
2022/07/28 11:19:15;;;;;;;2.75;1.50;;;;;;;;;;5076181;28;20047;-76
2022/07/28 11:22:00;;;;;;;1.85;1.52;;;;;;;;;;5053270;28;20037;-77
2022/07/28 11:24:26;;;;;;;2.75;1.70;;;;;;;;;;5040643;28;20046;-76
2022/07/28 11:26:53;;;;;;;2.47;1.48;;;;;;;;;;5037392;28;20049;-77
2022/07/28 11:29:19;;;;;;;1.90;1.20;;;;;;;;;;5020838;28;20057;-76
2022/07/28 11:31:45;;;;;;;3.15;1.60;;;;;;;;;;5055204;28;20033;-77
2022/07/28 11:34:15;;;;;;;3.25;1.70;;;;;;;;;;5056985;28;20026;-76
2022/07/28 11:37:01;;;;;;;2.85;1.50;;;;;;;;;;5056945;28;20029;-77
2022/07/28 11:39:31;;;;;;;2.50;1.60;;;;;;;;;;5057013;28;20105;-76
2022/07/28 11:41:57;;;;;;;1.92;1.40;;;;;;;;;;5056866;28;20037;-76
2022/07/28 11:44:27;;;;;;;2.10;1.48;;;;;;;;;;5057049;28;20076;-76
2022/07/28 11:46:54;;;;;;;2.35;1.40;;;;;;;;;;5051750;28;20056;-76
2022/07/28 11:49:21;;;;;;;1.83;1.40;;;;;;;;;;5037008;28;20038;-76
2022/07/28 11:52:07;;;;;;;1.73;1.48;;;;;;;;;;5037166;28;20034;-76
2022/07/28 11:54:34;;;;;;;2.22;1.40;;;;;;;;;;5039010;28;20042;-76
2022/07/28 11:57:01;;;;;;;3.30;1.67;;;;;;;;;;5057805;28;20021;-77
2022/07/28 11:59:27;;;;;;;1.80;1.65;;;;;;;;;;5024358;28;20029;-77
2022/07/28 12:01:55;;;;;;;2.30;1.48;;;;;;;;;;5071690;28;20041;-76
2022/07/28 12:04:26;;;;;;;1.50;1.40;;;;;;;;;;5076989;28;20080;-77
2022/07/28 12:06:52;;;;;;;1.40;1.30;;;;;;;;;;5057795;28;20034;-76
2022/07/28 12:09:19;;;;;;;2.63;1.55;;;;;;;;;;5040653;28;20084;-76
2022/07/28 12:11:52;;;;;;;1.75;1.48;;;;;;;;;;5057685;28;20025;-76
2022/07/28 12:14:21;;;;;;;2.72;1.50;;;;;;;;;;5057612;28;20155;-76
2022/07/28 12:16:49;;;;;;;1.83;1.50;;;;;;;;;;5061862;28;20030;-76
2022/07/28 12:19:16;;;;;;;2.75;1.45;;;;;;;;;;5040629;28;20042;-77
2022/07/28 12:21:46;;;;;;;2.33;1.60;;;;;;;;;;5044196;28;20144;-76
2022/07/28 12:24:14;;;;;;;2.22;1.67;;;;;;;;;;5061158;28;20029;-77
2022/07/28 12:26:40;;;;;;;2.78;1.50;;;;;;;;;;5061188;28;20052;-76
2022/07/28 12:29:07;;;;;;;3.38;1.60;;;;;;;;;;5061083;28;20068;-76
2022/07/28 12:31:34;;;;;;;3.00;1.60;;;;;;;;;;5066151;28;20022;-77
2022/07/28 12:34:01;;;;;;;4.82;1.60;;;;;;;;;;5061039;28;20064;-82
2022/07/28 12:36:27;;;;;;;1.98;1.40;;;;;;;;;;5044029;28;20083;-77
2022/07/28 12:38:53;;;;;;;2.88;1.48;;;;;;;;;;5043997;28;20061;-77
2022/07/28 12:41:19;;;;;;;5.78;1.80;;;;;;;;;;5060707;28;20033;-79
2022/07/28 12:43:53;;;;;;;3.33;1.83;;;;;;;;;;5061797;28;20029;-77
2022/07/28 12:46:21;;;;;;;2.17;1.40;;;;;;;;;;5077031;28;20053;-76
2022/07/28 12:48:48;;;;;;;1.65;1.40;;;;;;;;;;5067674;28;20059;-76
2022/07/28 12:51:33;;;;;;;2.03;1.60;;;;;;;;;;5080573;28;20055;-76
2022/07/28 12:53:59;;;;;;;1.70;1.55;;;;;;;;;;5067018;28;20026;-76
2022/07/28 12:56:25;;;;;;;2.10;1.38;;;;;;;;;;5071861;28;20017;-76
2022/07/28 12:59:08;;;;;;;2.67;1.38;;;;;;;;;;5078793;28;20056;-76
2022/07/28 13:02:03;;;;;;;4.75;1.85;;;;;;;;;;5078147;28;20033;-76
2022/07/28 13:04:36;;;;;;;2.55;1.70;;;;;;;;;;5039857;28;20067;-77
2022/07/28 13:07:09;;;;;;;2.30;1.70;;;;;;;;;;5078743;28;20028;-77
2022/07/28 13:09:45;;;;;;;2.55;1.40;;;;;;;;;;5079947;28;20056;-76
2022/07/28 13:12:14;;;;;;;3.40;1.90;;;;;;;;;;5059184;28;20044;-77
2022/07/28 13:14:42;;;;;;;2.10;1.60;;;;;;;;;;5068515;28;20017;-76
2022/07/28 13:17:08;;;;;;;3.47;1.52;;;;;;;;;;5077687;28;20056;-76
2022/07/28 13:19:34;;;;;;;2.42;1.60;;;;;;;;;;5068897;28;20041;-76
2022/07/28 13:22:01;;;;;;;2.47;1.60;;;;;;;;;;5061250;28;20116;-76
2022/07/28 13:24:28;;;;;;;2.65;1.45;;;;;;;;;;5062952;28;20056;-77
2022/07/28 13:26:55;;;;;;;2.90;1.52;;;;;;;;;;5057289;28;20152;-77
2022/07/28 13:29:21;;;;;;;2.92;1.60;;;;;;;;;;5078881;28;20110;-77
2022/07/28 13:31:48;;;;;;;2.05;1.65;;;;;;;;;;5059911;28;20029;-76
2022/07/28 13:34:14;;;;;;;1.83;1.35;;;;;;;;;;5069665;28;20056;-76
2022/07/28 13:36:40;;;;;;;2.50;1.52;;;;;;;;;;5078128;28;20053;-77
2022/07/28 13:39:09;;;;;;;2.08;1.50;;;;;;;;;;5064678;28;20033;-76
2022/07/28 13:41:35;;;;;;;2.88;1.60;;;;;;;;;;5079691;28;20081;-76
2022/07/28 13:44:01;;;;;;;2.58;1.45;;;;;;;;;;5070191;28;20029;-76
2022/07/28 13:46:28;;;;;;;2.35;1.52;;;;;;;;;;5078546;28;20061;-76
2022/07/28 13:48:54;;;;;;;2.33;1.58;;;;;;;;;;5069437;28;20048;-76
2022/07/28 13:51:20;;;;;;;2.90;1.63;;;;;;;;;;5078511;28;20029;-75
2022/07/28 13:53:46;;;;;;;2.67;1.83;;;;;;;;;;5079512;28;20075;-76
2022/07/28 13:56:12;;;;;;;1.70;1.60;;;;;;;;;;5079576;28;20025;-76
2022/07/28 13:58:38;;;;;;;2.28;1.40;;;;;;;;;;5079365;28;20033;-76
2022/07/28 14:01:05;;;;;;;2.63;1.60;;;;;;;;;;5061312;28;20057;-76
2022/07/28 14:03:31;;;;;;;5.25;1.70;;;;;;;;;;5071983;28;20017;-76
2022/07/28 14:05:58;;;;;;;2.63;1.50;;;;;;;;;;5069088;28;20477;-76
2022/07/28 14:08:24;;;;;;;2.35;1.38;;;;;;;;;;5068910;28;20025;-76
2022/07/28 14:10:51;;;;;;;2.28;1.73;;;;;;;;;;5071517;28;20080;-76
2022/07/28 14:13:17;;;;;;;2.92;1.60;;;;;;;;;;5079119;28;20025;-76
2022/07/28 14:15:44;;;;;;;2.78;1.60;;;;;;;;;;5079184;28;20025;-81
2022/07/28 14:18:10;;;;;;;2.40;1.60;;;;;;;;;;5059178;28;20041;-75
2022/07/28 14:20:36;;;;;;;2.08;1.60;;;;;;;;;;5058017;28;20029;-76
2022/07/28 14:23:02;;;;;;;4.30;1.60;;;;;;;;;;5078739;28;20045;-76
2022/07/28 14:25:28;;;;;;;2.20;1.48;;;;;;;;;;5078896;28;20025;-76
2022/07/28 14:27:54;;;;;;;2.83;1.52;;;;;;;;;;5073468;28;20041;-76
2022/07/28 14:30:22;;;;;;;3.00;1.50;;;;;;;;;;5058884;28;20044;-76
2022/07/28 14:32:48;;;;;;;3.63;1.80;;;;;;;;;;5058258;28;20080;-79
2022/07/28 14:35:15;;;;;;;4.20;1.80;;;;;;;;;;5075071;28;20033;-76
2022/07/28 14:37:41;;;;;;;2.63;1.63;;;;;;;;;;5078407;28;20055;-76
2022/07/28 14:40:07;;;;;;;3.58;1.60;;;;;;;;;;5077781;28;20025;-76
2022/07/28 14:42:33;;;;;;;2.50;1.65;;;;;;;;;;5077655;28;20052;-76
2022/07/28 14:45:01;;;;;;;2.88;1.67;;;;;;;;;;5057293;28;20026;-76
2022/07/28 14:47:27;;;;;;;2.65;1.45;;;;;;;;;;5065863;28;20068;-75